Terminal Aerodrome Forecast
Issued by NWS

Home | Current Version | Previous Version | Text Only | Print | Product List | Glossary On
Versions: 1 2 3 4 5 6 7 8 9 10 11 12 13
000
FTUS45 KRIW 232300
TAFWRL
TAF
KWRL 232323Z 2400/2424 30009KT P6SM SCT050 BKN080
     FM240400 VRB06KT P6SM SCT120
     FM241900 23011KT P6SM BKN080=

USA.gov is the U.S. government's official web portal to all federal, state and local government web resources and services.